sensor_id;sensor_type;location;lat;lon;timestamp;temperature;humidity
14517;DHT22;7344;50.864;4.362;2022-10-16T00:00:18;15.10;99.90
14517;DHT22;7344;50.864;4.362;2022-10-16T00:02:44;15.10;99.90
14517;DHT22;7344;50.864;4.362;2022-10-16T00:05:09;15.10;99.90
14517;DHT22;7344;50.864;4.362;2022-10-16T00:07:35;15.10;99.90
14517;DHT22;7344;50.864;4.362;2022-10-16T00:10:01;15.10;99.90
14517;DHT22;7344;50.864;4.362;2022-10-16T00:12:26;15.10;99.90
14517;DHT22;7344;50.864;4.362;2022-10-16T00:14:52;15.10;99.90
14517;DHT22;7344;50.864;4.362;2022-10-16T00:17:17;15.10;99.90
14517;DHT22;7344;50.864;4.362;2022-10-16T00:19:43;15.10;99.90
14517;DHT22;7344;50.864;4.362;2022-10-16T00:22:09;15.10;99.90
14517;DHT22;7344;50.864;4.362;2022-10-16T00:24:34;15.00;99.90
14517;DHT22;7344;50.864;4.362;2022-10-16T00:27:00;15.00;99.90
14517;DHT22;7344;50.864;4.362;2022-10-16T00:29:25;15.00;99.90
14517;DHT22;7344;50.864;4.362;2022-10-16T00:31:51;15.00;99.90
14517;DHT22;7344;50.864;4.362;2022-10-16T00:34:16;15.00;99.90
14517;DHT22;7344;50.864;4.362;2022-10-16T00:36:42;15.00;99.90
14517;DHT22;7344;50.864;4.362;2022-10-16T00:39:08;14.90;99.90
14517;DHT22;7344;50.864;4.362;2022-10-16T00:41:33;14.90;99.90
14517;DHT22;7344;50.864;4.362;2022-10-16T00:44:01;14.80;99.90
14517;DHT22;7344;50.864;4.362;2022-10-16T00:46:37;14.80;99.90
14517;DHT22;7344;50.864;4.362;2022-10-16T00:49:07;14.70;99.90
14517;DHT22;7344;50.864;4.362;2022-10-16T00:51:40;14.70;99.90
14517;DHT22;7344;50.864;4.362;2022-10-16T00:54:14;14.70;99.90
14517;DHT22;7344;50.864;4.362;2022-10-16T00:56:41;14.60;99.90
14517;DHT22;7344;50.864;4.362;2022-10-16T00:59:23;14.70;99.90
14517;DHT22;7344;50.864;4.362;2022-10-16T01:01:50;14.70;99.90
14517;DHT22;7344;50.864;4.362;2022-10-16T01:04:15;14.70;99.90
14517;DHT22;7344;50.864;4.362;2022-10-16T01:12:12;14.60;99.90
14517;DHT22;7344;50.864;4.362;2022-10-16T01:17:12;14.60;99.90
14517;DHT22;7344;50.864;4.362;2022-10-16T01:28:24;14.60;99.90
14517;DHT22;7344;50.864;4.362;2022-10-16T01:30:56;14.50;99.90
14517;DHT22;7344;50.864;4.362;2022-10-16T01:33:30;14.50;99.90
14517;DHT22;7344;50.864;4.362;2022-10-16T01:36:16;14.50;99.90
14517;DHT22;7344;50.864;4.362;2022-10-16T01:38:45;14.50;99.90
14517;DHT22;7344;50.864;4.362;2022-10-16T01:41:21;14.50;99.90
14517;DHT22;7344;50.864;4.362;2022-10-16T01:43:56;14.60;99.90
14517;DHT22;7344;50.864;4.362;2022-10-16T01:46:26;14.60;99.90
14517;DHT22;7344;50.864;4.362;2022-10-16T01:48:53;14.60;99.90
14517;DHT22;7344;50.864;4.362;2022-10-16T01:51:20;14.60;99.90
14517;DHT22;7344;50.864;4.362;2022-10-16T01:53:50;14.60;99.90
14517;DHT22;7344;50.864;4.362;2022-10-16T01:56:17;14.50;99.90
14517;DHT22;7344;50.864;4.362;2022-10-16T01:58:51;14.50;99.90
14517;DHT22;7344;50.864;4.362;2022-10-16T02:01:19;14.50;99.90
14517;DHT22;7344;50.864;4.362;2022-10-16T02:03:51;14.50;99.90
14517;DHT22;7344;50.864;4.362;2022-10-16T02:06:17;14.50;99.90
14517;DHT22;7344;50.864;4.362;2022-10-16T02:08:43;14.50;99.90
14517;DHT22;7344;50.864;4.362;2022-10-16T02:11:09;14.50;99.90
14517;DHT22;7344;50.864;4.362;2022-10-16T02:13:40;14.50;99.90
14517;DHT22;7344;50.864;4.362;2022-10-16T02:16:08;14.40;99.90
14517;DHT22;7344;50.864;4.362;2022-10-16T02:18:35;14.50;99.90
14517;DHT22;7344;50.864;4.362;2022-10-16T02:21:21;14.50;99.90
14517;DHT22;7344;50.864;4.362;2022-10-16T02:23:58;14.50;99.90
14517;DHT22;7344;50.864;4.362;2022-10-16T02:26:32;14.50;99.90
14517;DHT22;7344;50.864;4.362;2022-10-16T02:29:04;14.40;99.90
14517;DHT22;7344;50.864;4.362;2022-10-16T02:31:34;14.40;99.90
14517;DHT22;7344;50.864;4.362;2022-10-16T02:34:02;14.50;99.90
14517;DHT22;7344;50.864;4.362;2022-10-16T02:36:31;14.40;99.90
14517;DHT22;7344;50.864;4.362;2022-10-16T02:38:58;14.40;99.90
14517;DHT22;7344;50.864;4.362;2022-10-16T02:41:25;14.30;99.90
14517;DHT22;7344;50.864;4.362;2022-10-16T02:43:51;14.40;99.90
14517;DHT22;7344;50.864;4.362;2022-10-16T02:46:17;14.30;99.90
14517;DHT22;7344;50.864;4.362;2022-10-16T02:48:43;14.30;99.90
14517;DHT22;7344;50.864;4.362;2022-10-16T02:51:09;14.30;99.90
14517;DHT22;7344;50.864;4.362;2022-10-16T02:53:34;14.30;99.90
14517;DHT22;7344;50.864;4.362;2022-10-16T02:56:00;14.40;99.90
14517;DHT22;7344;50.864;4.362;2022-10-16T02:58:25;14.30;99.90
14517;DHT22;7344;50.864;4.362;2022-10-16T03:00:51;14.30;99.90
14517;DHT22;7344;50.864;4.362;2022-10-16T03:03:17;14.40;99.90
14517;DHT22;7344;50.864;4.362;2022-10-16T03:05:43;14.40;99.90
14517;DHT22;7344;50.864;4.362;2022-10-16T03:08:11;14.30;99.90
14517;DHT22;7344;50.864;4.362;2022-10-16T03:10:37;14.40;99.90
14517;DHT22;7344;50.864;4.362;2022-10-16T03:13:03;14.40;99.90
14517;DHT22;7344;50.864;4.362;2022-10-16T03:15:28;14.40;99.90
14517;DHT22;7344;50.864;4.362;2022-10-16T03:17:54;14.40;99.90
14517;DHT22;7344;50.864;4.362;2022-10-16T03:20:20;14.50;99.90
14517;DHT22;7344;50.864;4.362;2022-10-16T03:22:46;14.40;99.90
14517;DHT22;7344;50.864;4.362;2022-10-16T03:25:11;14.40;99.90
14517;DHT22;7344;50.864;4.362;2022-10-16T03:27:37;14.40;99.90
14517;DHT22;7344;50.864;4.362;2022-10-16T03:30:02;14.40;99.90
14517;DHT22;7344;50.864;4.362;2022-10-16T03:32:28;14.40;99.90
14517;DHT22;7344;50.864;4.362;2022-10-16T03:34:54;14.40;99.90
14517;DHT22;7344;50.864;4.362;2022-10-16T03:37:21;14.40;99.90
14517;DHT22;7344;50.864;4.362;2022-10-16T03:39:47;14.40;99.90
14517;DHT22;7344;50.864;4.362;2022-10-16T03:42:12;14.40;99.90
14517;DHT22;7344;50.864;4.362;2022-10-16T03:44:38;14.50;99.90
14517;DHT22;7344;50.864;4.362;2022-10-16T03:47:04;14.40;99.90
14517;DHT22;7344;50.864;4.362;2022-10-16T03:49:29;14.40;99.90
14517;DHT22;7344;50.864;4.362;2022-10-16T03:51:55;14.40;99.90
14517;DHT22;7344;50.864;4.362;2022-10-16T03:54:20;14.40;99.90
14517;DHT22;7344;50.864;4.362;2022-10-16T03:56:47;14.40;99.90
14517;DHT22;7344;50.864;4.362;2022-10-16T03:59:13;14.40;99.90
14517;DHT22;7344;50.864;4.362;2022-10-16T04:01:39;14.50;99.90
14517;DHT22;7344;50.864;4.362;2022-10-16T04:04:04;14.30;99.90
14517;DHT22;7344;50.864;4.362;2022-10-16T04:06:30;14.40;99.90
14517;DHT22;7344;50.864;4.362;2022-10-16T04:08:56;14.40;99.90
14517;DHT22;7344;50.864;4.362;2022-10-16T04:11:21;14.30;99.90
14517;DHT22;7344;50.864;4.362;2022-10-16T04:13:47;14.40;99.90
14517;DHT22;7344;50.864;4.362;2022-10-16T04:16:13;14.30;99.90
14517;DHT22;7344;50.864;4.362;2022-10-16T04:18:38;14.40;99.90
14517;DHT22;7344;50.864;4.362;2022-10-16T04:21:05;14.30;99.90
14517;DHT22;7344;50.864;4.362;2022-10-16T04:23:32;14.30;99.90
14517;DHT22;7344;50.864;4.362;2022-10-16T04:25:58;14.20;99.90
14517;DHT22;7344;50.864;4.362;2022-10-16T04:28:24;14.20;99.90
14517;DHT22;7344;50.864;4.362;2022-10-16T04:30:50;14.30;99.90
14517;DHT22;7344;50.864;4.362;2022-10-16T04:33:16;14.30;99.90
14517;DHT22;7344;50.864;4.362;2022-10-16T04:35:41;14.30;99.90
14517;DHT22;7344;50.864;4.362;2022-10-16T04:38:07;14.30;99.90
14517;DHT22;7344;50.864;4.362;2022-10-16T04:40:32;14.30;99.90
14517;DHT22;7344;50.864;4.362;2022-10-16T04:42:59;14.30;99.90
14517;DHT22;7344;50.864;4.362;2022-10-16T04:45:25;14.30;99.90
14517;DHT22;7344;50.864;4.362;2022-10-16T04:47:50;14.30;99.90
14517;DHT22;7344;50.864;4.362;2022-10-16T04:50:16;14.20;99.90
14517;DHT22;7344;50.864;4.362;2022-10-16T04:52:41;14.10;99.90
14517;DHT22;7344;50.864;4.362;2022-10-16T04:55:07;14.10;99.90
14517;DHT22;7344;50.864;4.362;2022-10-16T04:57:33;14.10;99.90
14517;DHT22;7344;50.864;4.362;2022-10-16T04:59:58;14.10;99.90
14517;DHT22;7344;50.864;4.362;2022-10-16T05:02:24;14.10;99.90
14517;DHT22;7344;50.864;4.362;2022-10-16T05:04:50;14.10;99.90
14517;DHT22;7344;50.864;4.362;2022-10-16T05:07:16;14.10;99.90
14517;DHT22;7344;50.864;4.362;2022-10-16T05:09:42;14.10;99.90
14517;DHT22;7344;50.864;4.362;2022-10-16T05:12:07;14.10;99.90
14517;DHT22;7344;50.864;4.362;2022-10-16T05:14:33;14.10;99.90
14517;DHT22;7344;50.864;4.362;2022-10-16T05:17:00;14.20;99.90
14517;DHT22;7344;50.864;4.362;2022-10-16T05:19:26;14.10;99.90
14517;DHT22;7344;50.864;4.362;2022-10-16T05:21:51;14.00;99.90
14517;DHT22;7344;50.864;4.362;2022-10-16T05:24:17;14.00;99.90
14517;DHT22;7344;50.864;4.362;2022-10-16T05:26:42;14.10;99.90
14517;DHT22;7344;50.864;4.362;2022-10-16T05:29:09;14.10;99.90
14517;DHT22;7344;50.864;4.362;2022-10-16T05:31:35;14.00;99.90
14517;DHT22;7344;50.864;4.362;2022-10-16T05:34:01;14.00;99.90
14517;DHT22;7344;50.864;4.362;2022-10-16T05:36:27;14.00;99.90
14517;DHT22;7344;50.864;4.362;2022-10-16T05:38:53;14.10;99.90
14517;DHT22;7344;50.864;4.362;2022-10-16T05:41:19;14.10;99.90
14517;DHT22;7344;50.864;4.362;2022-10-16T05:43:50;14.10;99.90
14517;DHT22;7344;50.864;4.362;2022-10-16T05:46:16;14.00;99.90
14517;DHT22;7344;50.864;4.362;2022-10-16T05:48:43;14.00;99.90
14517;DHT22;7344;50.864;4.362;2022-10-16T05:51:11;14.00;99.90
14517;DHT22;7344;50.864;4.362;2022-10-16T05:53:38;14.00;99.90
14517;DHT22;7344;50.864;4.362;2022-10-16T05:56:05;14.00;99.90
14517;DHT22;7344;50.864;4.362;2022-10-16T05:58:33;14.00;99.90
14517;DHT22;7344;50.864;4.362;2022-10-16T06:01:05;14.00;99.90
14517;DHT22;7344;50.864;4.362;2022-10-16T06:03:32;14.00;99.90
14517;DHT22;7344;50.864;4.362;2022-10-16T06:05:58;14.00;99.90
14517;DHT22;7344;50.864;4.362;2022-10-16T06:08:24;14.00;99.90
14517;DHT22;7344;50.864;4.362;2022-10-16T06:11:01;14.00;99.90
14517;DHT22;7344;50.864;4.362;2022-10-16T06:13:27;14.00;99.90
14517;DHT22;7344;50.864;4.362;2022-10-16T06:15:53;14.00;99.90
14517;DHT22;7344;50.864;4.362;2022-10-16T06:18:18;14.00;99.90
14517;DHT22;7344;50.864;4.362;2022-10-16T06:20:44;14.10;99.90
14517;DHT22;7344;50.864;4.362;2022-10-16T06:23:09;14.10;99.90
14517;DHT22;7344;50.864;4.362;2022-10-16T06:25:35;14.00;99.90
14517;DHT22;7344;50.864;4.362;2022-10-16T06:28:00;14.00;99.90
14517;DHT22;7344;50.864;4.362;2022-10-16T06:30:26;14.00;99.90
14517;DHT22;7344;50.864;4.362;2022-10-16T06:32:51;14.00;99.90
14517;DHT22;7344;50.864;4.362;2022-10-16T06:35:17;14.00;99.90
14517;DHT22;7344;50.864;4.362;2022-10-16T06:37:43;14.00;99.90
14517;DHT22;7344;50.864;4.362;2022-10-16T06:40:08;14.10;99.90
14517;DHT22;7344;50.864;4.362;2022-10-16T06:42:34;14.20;99.90
14517;DHT22;7344;50.864;4.362;2022-10-16T06:44:59;14.20;99.90
14517;DHT22;7344;50.864;4.362;2022-10-16T06:47:25;14.40;99.90
14517;DHT22;7344;50.864;4.362;2022-10-16T06:49:50;14.60;99.90
14517;DHT22;7344;50.864;4.362;2022-10-16T06:52:16;14.90;99.90
14517;DHT22;7344;50.864;4.362;2022-10-16T06:54:42;15.30;99.90
14517;DHT22;7344;50.864;4.362;2022-10-16T06:57:07;15.90;99.90
14517;DHT22;7344;50.864;4.362;2022-10-16T06:59:33;16.40;99.90
14517;DHT22;7344;50.864;4.362;2022-10-16T07:01:58;16.60;99.90
14517;DHT22;7344;50.864;4.362;2022-10-16T07:04:24;16.60;99.90
14517;DHT22;7344;50.864;4.362;2022-10-16T07:06:49;16.60;99.90
14517;DHT22;7344;50.864;4.362;2022-10-16T07:09:16;16.70;99.90
14517;DHT22;7344;50.864;4.362;2022-10-16T07:11:42;17.10;99.90
14517;DHT22;7344;50.864;4.362;2022-10-16T07:14:19;18.00;99.90
14517;DHT22;7344;50.864;4.362;2022-10-16T07:16:45;18.70;99.90
14517;DHT22;7344;50.864;4.362;2022-10-16T07:19:11;19.00;99.90
14517;DHT22;7344;50.864;4.362;2022-10-16T07:21:40;19.90;99.90
14517;DHT22;7344;50.864;4.362;2022-10-16T07:24:11;20.70;99.90
14517;DHT22;7344;50.864;4.362;2022-10-16T07:26:38;21.80;99.90
14517;DHT22;7344;50.864;4.362;2022-10-16T07:29:06;22.70;99.90
14517;DHT22;7344;50.864;4.362;2022-10-16T07:31:32;23.80;99.90
14517;DHT22;7344;50.864;4.362;2022-10-16T07:34:01;23.70;99.60
14517;DHT22;7344;50.864;4.362;2022-10-16T07:36:27;23.60;99.90
14517;DHT22;7344;50.864;4.362;2022-10-16T07:38:53;23.80;99.90
14517;DHT22;7344;50.864;4.362;2022-10-16T07:41:19;24.20;98.20
14517;DHT22;7344;50.864;4.362;2022-10-16T07:43:49;24.60;97.80
14517;DHT22;7344;50.864;4.362;2022-10-16T07:46:16;24.10;97.90
14517;DHT22;7344;50.864;4.362;2022-10-16T07:48:43;25.00;97.20
14517;DHT22;7344;50.864;4.362;2022-10-16T07:51:13;24.90;96.10
14517;DHT22;7344;50.864;4.362;2022-10-16T07:53:39;24.80;96.10
14517;DHT22;7344;50.864;4.362;2022-10-16T07:56:06;24.40;96.40
14517;DHT22;7344;50.864;4.362;2022-10-16T07:58:33;25.10;96.60
14517;DHT22;7344;50.864;4.362;2022-10-16T08:01:03;25.90;94.30
14517;DHT22;7344;50.864;4.362;2022-10-16T08:03:29;26.20;92.40
14517;DHT22;7344;50.864;4.362;2022-10-16T08:05:57;26.30;92.80
14517;DHT22;7344;50.864;4.362;2022-10-16T08:08:22;27.10;90.80
14517;DHT22;7344;50.864;4.362;2022-10-16T08:10:48;25.80;91.70
14517;DHT22;7344;50.864;4.362;2022-10-16T08:13:13;26.40;91.70
14517;DHT22;7344;50.864;4.362;2022-10-16T08:15:41;26.20;91.80
14517;DHT22;7344;50.864;4.362;2022-10-16T08:18:07;26.40;91.50
14517;DHT22;7344;50.864;4.362;2022-10-16T08:20:33;26.20;91.40
14517;DHT22;7344;50.864;4.362;2022-10-16T08:22:59;25.90;91.70
14517;DHT22;7344;50.864;4.362;2022-10-16T08:25:25;26.60;91.50
14517;DHT22;7344;50.864;4.362;2022-10-16T08:27:51;27.10;86.80
14517;DHT22;7344;50.864;4.362;2022-10-16T08:30:19;27.10;87.70
14517;DHT22;7344;50.864;4.362;2022-10-16T08:32:44;26.60;90.00
14517;DHT22;7344;50.864;4.362;2022-10-16T08:35:11;27.40;85.80
14517;DHT22;7344;50.864;4.362;2022-10-16T08:37:38;27.10;1.00
14517;DHT22;7344;50.864;4.362;2022-10-16T08:40:06;27.00;1.00
14517;DHT22;7344;50.864;4.362;2022-10-16T08:45:43;27.60;1.00
14517;DHT22;7344;50.864;4.362;2022-10-16T08:48:30;27.00;1.00
14517;DHT22;7344;50.864;4.362;2022-10-16T08:51:01;27.10;1.00
14517;DHT22;7344;50.864;4.362;2022-10-16T08:53:31;27.20;1.00
14517;DHT22;7344;50.864;4.362;2022-10-16T08:55:59;27.50;1.00
14517;DHT22;7344;50.864;4.362;2022-10-16T08:58:29;28.30;1.00
14517;DHT22;7344;50.864;4.362;2022-10-16T09:01:01;27.80;1.00
14517;DHT22;7344;50.864;4.362;2022-10-16T09:22:27;27.50;1.00
14517;DHT22;7344;50.864;4.362;2022-10-16T09:24:56;27.40;1.00
14517;DHT22;7344;50.864;4.362;2022-10-16T09:27:24;27.90;1.00
14517;DHT22;7344;50.864;4.362;2022-10-16T09:29:51;28.20;99.90
14517;DHT22;7344;50.864;4.362;2022-10-16T09:32:19;28.50;99.90
14517;DHT22;7344;50.864;4.362;2022-10-16T09:34:49;27.80;99.90
14517;DHT22;7344;50.864;4.362;2022-10-16T09:37:19;28.00;99.90
14517;DHT22;7344;50.864;4.362;2022-10-16T09:39:52;28.40;99.90
14517;DHT22;7344;50.864;4.362;2022-10-16T09:42:31;28.30;99.90
14517;DHT22;7344;50.864;4.362;2022-10-16T09:44:58;28.50;99.90
14517;DHT22;7344;50.864;4.362;2022-10-16T09:47:26;28.20;99.90
14517;DHT22;7344;50.864;4.362;2022-10-16T09:49:55;28.40;99.90
14517;DHT22;7344;50.864;4.362;2022-10-16T09:52:24;27.60;99.90
14517;DHT22;7344;50.864;4.362;2022-10-16T09:54:51;26.80;1.00
14517;DHT22;7344;50.864;4.362;2022-10-16T09:57:17;26.80;1.00
14517;DHT22;7344;50.864;4.362;2022-10-16T09:59:50;26.40;1.00
14517;DHT22;7344;50.864;4.362;2022-10-16T10:02:19;26.80;1.00
14517;DHT22;7344;50.864;4.362;2022-10-16T10:04:52;27.30;1.00
14517;DHT22;7344;50.864;4.362;2022-10-16T10:07:33;26.40;1.00
14517;DHT22;7344;50.864;4.362;2022-10-16T10:10:03;26.60;1.00
14517;DHT22;7344;50.864;4.362;2022-10-16T10:12:31;26.10;1.00
14517;DHT22;7344;50.864;4.362;2022-10-16T10:15:06;25.70;1.00
14517;DHT22;7344;50.864;4.362;2022-10-16T10:17:32;25.70;83.10
14517;DHT22;7344;50.864;4.362;2022-10-16T10:20:21;25.20;84.20
14517;DHT22;7344;50.864;4.362;2022-10-16T10:22:47;26.10;85.80
14517;DHT22;7344;50.864;4.362;2022-10-16T10:30:35;27.70;1.00
14517;DHT22;7344;50.864;4.362;2022-10-16T10:33:14;26.40;1.00
14517;DHT22;7344;50.864;4.362;2022-10-16T10:38:38;26.40;1.00
14517;DHT22;7344;50.864;4.362;2022-10-16T10:49:16;27.80;99.90
14517;DHT22;7344;50.864;4.362;2022-10-16T10:55:08;27.70;99.90
14517;DHT22;7344;50.864;4.362;2022-10-16T10:57:59;27.10;99.90
14517;DHT22;7344;50.864;4.362;2022-10-16T11:00:47;27.30;99.90
14517;DHT22;7344;50.864;4.362;2022-10-16T11:06:23;26.40;99.90
14517;DHT22;7344;50.864;4.362;2022-10-16T11:09:23;25.60;1.00
14517;DHT22;7344;50.864;4.362;2022-10-16T11:11:51;25.90;1.00
14517;DHT22;7344;50.864;4.362;2022-10-16T11:14:28;25.50;1.00
14517;DHT22;7344;50.864;4.362;2022-10-16T11:16:58;24.80;5.50
14517;DHT22;7344;50.864;4.362;2022-10-16T11:22:38;25.20;84.20
14517;DHT22;7344;50.864;4.362;2022-10-16T11:25:25;26.10;1.00
14517;DHT22;7344;50.864;4.362;2022-10-16T11:30:26;25.50;1.00
14517;DHT22;7344;50.864;4.362;2022-10-16T11:35:50;25.50;1.00
14517;DHT22;7344;50.864;4.362;2022-10-16T11:38:46;24.90;1.00
14517;DHT22;7344;50.864;4.362;2022-10-16T11:41:23;25.00;1.00
14517;DHT22;7344;50.864;4.362;2022-10-16T11:46:46;23.80;90.10
14517;DHT22;7344;50.864;4.362;2022-10-16T11:49:21;24.10;89.80
14517;DHT22;7344;50.864;4.362;2022-10-16T11:52:05;23.80;89.80
14517;DHT22;7344;50.864;4.362;2022-10-16T11:54:56;23.60;90.50
14517;DHT22;7344;50.864;4.362;2022-10-16T11:57:28;23.20;91.50
14517;DHT22;7344;50.864;4.362;2022-10-16T12:02:37;22.70;95.10
14517;DHT22;7344;50.864;4.362;2022-10-16T12:05:24;22.60;94.80
14517;DHT22;7344;50.864;4.362;2022-10-16T12:10:32;22.00;95.90
14517;DHT22;7344;50.864;4.362;2022-10-16T12:13:03;22.10;96.10
14517;DHT22;7344;50.864;4.362;2022-10-16T12:15:31;22.30;96.20
14517;DHT22;7344;50.864;4.362;2022-10-16T12:17:58;22.60;1.00
14517;DHT22;7344;50.864;4.362;2022-10-16T12:20:25;22.50;99.90
14517;DHT22;7344;50.864;4.362;2022-10-16T12:22:55;22.20;99.90
14517;DHT22;7344;50.864;4.362;2022-10-16T12:25:26;22.00;1.00
14517;DHT22;7344;50.864;4.362;2022-10-16T12:28:18;21.50;1.00
14517;DHT22;7344;50.864;4.362;2022-10-16T12:30:53;21.70;1.00
14517;DHT22;7344;50.864;4.362;2022-10-16T12:33:30;22.00;99.90
14517;DHT22;7344;50.864;4.362;2022-10-16T12:35:59;22.10;1.00
14517;DHT22;7344;50.864;4.362;2022-10-16T12:38:49;22.30;18.00
14517;DHT22;7344;50.864;4.362;2022-10-16T12:41:45;22.30;99.90
14517;DHT22;7344;50.864;4.362;2022-10-16T12:44:24;22.50;99.90
14517;DHT22;7344;50.864;4.362;2022-10-16T12:46:51;22.60;1.00
14517;DHT22;7344;50.864;4.362;2022-10-16T12:49:31;22.50;99.90
14517;DHT22;7344;50.864;4.362;2022-10-16T12:51:58;22.30;1.00
14517;DHT22;7344;50.864;4.362;2022-10-16T12:54:34;21.60;1.00
14517;DHT22;7344;50.864;4.362;2022-10-16T13:11:54;20.60;1.00
14517;DHT22;7344;50.864;4.362;2022-10-16T13:23:15;20.20;1.00
14517;DHT22;7344;50.864;4.362;2022-10-16T13:26:15;20.40;1.00
14517;DHT22;7344;50.864;4.362;2022-10-16T13:28:42;20.40;1.00
14517;DHT22;7344;50.864;4.362;2022-10-16T13:31:18;20.50;99.90
14517;DHT22;7344;50.864;4.362;2022-10-16T13:33:50;20.40;89.50
14517;DHT22;7344;50.864;4.362;2022-10-16T13:36:27;20.40;99.90
14517;DHT22;7344;50.864;4.362;2022-10-16T13:39:23;20.50;99.90
14517;DHT22;7344;50.864;4.362;2022-10-16T13:42:21;20.70;1.00
14517;DHT22;7344;50.864;4.362;2022-10-16T13:44:53;20.60;99.90
14517;DHT22;7344;50.864;4.362;2022-10-16T13:47:21;20.60;99.90
14517;DHT22;7344;50.864;4.362;2022-10-16T13:49:59;20.20;1.00
14517;DHT22;7344;50.864;4.362;2022-10-16T13:52:25;19.90;1.00
14517;DHT22;7344;50.864;4.362;2022-10-16T13:54:51;19.90;1.00
14517;DHT22;7344;50.864;4.362;2022-10-16T13:57:17;20.00;1.00
14517;DHT22;7344;50.864;4.362;2022-10-16T13:59:43;20.00;1.00
14517;DHT22;7344;50.864;4.362;2022-10-16T14:02:22;19.90;1.00
14517;DHT22;7344;50.864;4.362;2022-10-16T14:04:50;19.90;1.00
14517;DHT22;7344;50.864;4.362;2022-10-16T14:07:28;19.90;99.90
14517;DHT22;7344;50.864;4.362;2022-10-16T14:09:54;19.70;1.00
14517;DHT22;7344;50.864;4.362;2022-10-16T14:12:22;19.70;1.00
14517;DHT22;7344;50.864;4.362;2022-10-16T14:14:51;19.80;1.00
14517;DHT22;7344;50.864;4.362;2022-10-16T14:17:48;19.80;99.90
14517;DHT22;7344;50.864;4.362;2022-10-16T14:20:16;19.70;1.00
14517;DHT22;7344;50.864;4.362;2022-10-16T14:22:42;19.70;1.00
14517;DHT22;7344;50.864;4.362;2022-10-16T14:28:05;19.80;99.90
14517;DHT22;7344;50.864;4.362;2022-10-16T14:38:42;19.70;1.00
14517;DHT22;7344;50.864;4.362;2022-10-16T14:41:09;19.70;1.00
14517;DHT22;7344;50.864;4.362;2022-10-16T14:43:37;19.80;1.00
14517;DHT22;7344;50.864;4.362;2022-10-16T14:46:13;19.80;1.00
14517;DHT22;7344;50.864;4.362;2022-10-16T14:48:44;19.80;1.00
14517;DHT22;7344;50.864;4.362;2022-10-16T14:51:19;19.90;1.00
14517;DHT22;7344;50.864;4.362;2022-10-16T14:53:46;19.90;1.00
14517;DHT22;7344;50.864;4.362;2022-10-16T14:58:40;19.90;1.00
14517;DHT22;7344;50.864;4.362;2022-10-16T15:01:08;20.00;1.00
14517;DHT22;7344;50.864;4.362;2022-10-16T15:03:36;20.00;1.00
14517;DHT22;7344;50.864;4.362;2022-10-16T15:06:01;19.90;1.00
14517;DHT22;7344;50.864;4.362;2022-10-16T15:08:27;19.90;1.00
14517;DHT22;7344;50.864;4.362;2022-10-16T15:10:53;19.80;1.00
14517;DHT22;7344;50.864;4.362;2022-10-16T15:13:18;19.70;1.00
14517;DHT22;7344;50.864;4.362;2022-10-16T15:15:46;19.70;1.00
14517;DHT22;7344;50.864;4.362;2022-10-16T15:18:12;19.70;1.00
14517;DHT22;7344;50.864;4.362;2022-10-16T15:20:40;19.60;1.00
14517;DHT22;7344;50.864;4.362;2022-10-16T15:23:13;19.60;1.00
14517;DHT22;7344;50.864;4.362;2022-10-16T15:25:46;19.60;1.00
14517;DHT22;7344;50.864;4.362;2022-10-16T15:28:16;19.70;1.00
14517;DHT22;7344;50.864;4.362;2022-10-16T15:30:42;19.70;1.00
14517;DHT22;7344;50.864;4.362;2022-10-16T15:33:18;19.60;1.00
14517;DHT22;7344;50.864;4.362;2022-10-16T15:35:47;19.50;1.00
14517;DHT22;7344;50.864;4.362;2022-10-16T15:38:14;19.50;1.00
14517;DHT22;7344;50.864;4.362;2022-10-16T15:40:40;19.50;1.00
14517;DHT22;7344;50.864;4.362;2022-10-16T15:43:06;19.40;1.00
14517;DHT22;7344;50.864;4.362;2022-10-16T15:45:32;19.40;1.00
14517;DHT22;7344;50.864;4.362;2022-10-16T15:47:58;19.20;1.00
14517;DHT22;7344;50.864;4.362;2022-10-16T15:50:24;19.20;1.00
14517;DHT22;7344;50.864;4.362;2022-10-16T15:52:50;19.20;1.00
14517;DHT22;7344;50.864;4.362;2022-10-16T15:55:15;19.30;1.00
14517;DHT22;7344;50.864;4.362;2022-10-16T15:57:42;19.20;1.00
14517;DHT22;7344;50.864;4.362;2022-10-16T16:00:13;19.20;1.00
14517;DHT22;7344;50.864;4.362;2022-10-16T16:02:40;19.20;1.00
14517;DHT22;7344;50.864;4.362;2022-10-16T16:05:07;19.20;1.00
14517;DHT22;7344;50.864;4.362;2022-10-16T16:07:38;19.10;1.00
14517;DHT22;7344;50.864;4.362;2022-10-16T16:10:05;19.00;1.00
14517;DHT22;7344;50.864;4.362;2022-10-16T16:12:32;19.00;1.00
14517;DHT22;7344;50.864;4.362;2022-10-16T16:14:58;19.00;1.00
14517;DHT22;7344;50.864;4.362;2022-10-16T16:17:23;19.00;1.00
14517;DHT22;7344;50.864;4.362;2022-10-16T16:19:50;19.00;1.00
14517;DHT22;7344;50.864;4.362;2022-10-16T16:22:15;19.10;1.00
14517;DHT22;7344;50.864;4.362;2022-10-16T16:24:41;19.10;1.00
14517;DHT22;7344;50.864;4.362;2022-10-16T16:27:07;19.10;1.00
14517;DHT22;7344;50.864;4.362;2022-10-16T16:29:33;19.10;1.00
14517;DHT22;7344;50.864;4.362;2022-10-16T16:32:02;19.20;1.00
14517;DHT22;7344;50.864;4.362;2022-10-16T16:34:28;19.20;1.00
14517;DHT22;7344;50.864;4.362;2022-10-16T16:36:54;19.00;1.00
14517;DHT22;7344;50.864;4.362;2022-10-16T16:39:20;18.80;1.00
14517;DHT22;7344;50.864;4.362;2022-10-16T16:41:46;18.50;1.00
14517;DHT22;7344;50.864;4.362;2022-10-16T16:44:13;18.50;1.00
14517;DHT22;7344;50.864;4.362;2022-10-16T16:46:39;18.50;1.00
14517;DHT22;7344;50.864;4.362;2022-10-16T16:49:06;18.50;1.00
14517;DHT22;7344;50.864;4.362;2022-10-16T16:51:32;18.40;1.00
14517;DHT22;7344;50.864;4.362;2022-10-16T16:53:58;18.40;1.00
14517;DHT22;7344;50.864;4.362;2022-10-16T16:56:24;18.40;1.00
14517;DHT22;7344;50.864;4.362;2022-10-16T16:58:53;18.40;1.00
14517;DHT22;7344;50.864;4.362;2022-10-16T17:01:22;18.40;1.00
14517;DHT22;7344;50.864;4.362;2022-10-16T17:03:49;18.50;1.00
14517;DHT22;7344;50.864;4.362;2022-10-16T17:06:15;18.60;1.00
14517;DHT22;7344;50.864;4.362;2022-10-16T17:08:42;18.70;1.00
14517;DHT22;7344;50.864;4.362;2022-10-16T17:11:13;18.70;1.00
14517;DHT22;7344;50.864;4.362;2022-10-16T17:13:39;18.60;1.00
14517;DHT22;7344;50.864;4.362;2022-10-16T17:16:05;18.40;22.20
14517;DHT22;7344;50.864;4.362;2022-10-16T17:18:31;18.10;35.40
14517;DHT22;7344;50.864;4.362;2022-10-16T17:21:05;17.70;99.90
14517;DHT22;7344;50.864;4.362;2022-10-16T17:23:32;17.50;99.90
14517;DHT22;7344;50.864;4.362;2022-10-16T17:26:12;17.40;99.90
14517;DHT22;7344;50.864;4.362;2022-10-16T17:28:39;17.40;99.90
14517;DHT22;7344;50.864;4.362;2022-10-16T17:31:14;17.40;99.90
14517;DHT22;7344;50.864;4.362;2022-10-16T17:33:41;17.40;99.90
14517;DHT22;7344;50.864;4.362;2022-10-16T17:36:07;17.40;99.90
14517;DHT22;7344;50.864;4.362;2022-10-16T17:38:33;17.30;99.90
14517;DHT22;7344;50.864;4.362;2022-10-16T17:41:34;17.30;99.90
14517;DHT22;7344;50.864;4.362;2022-10-16T17:43:55;17.30;99.90
14517;DHT22;7344;50.864;4.362;2022-10-16T17:46:22;17.10;99.90
14517;DHT22;7344;50.864;4.362;2022-10-16T17:48:49;17.10;99.90
14517;DHT22;7344;50.864;4.362;2022-10-16T17:51:18;17.00;99.90
14517;DHT22;7344;50.864;4.362;2022-10-16T17:53:48;17.00;99.90
14517;DHT22;7344;50.864;4.362;2022-10-16T17:56:14;17.00;99.90